sensor_id;sensor_type;location;lat;lon;timestamp;P1;durP1;ratioP1;P2;durP2;ratioP2
11498;SDS011;5806;48.748;9.278;2023-03-01T00:00:43;12.10;;;9.30;;
11498;SDS011;5806;48.748;9.278;2023-03-01T00:03:11;13.10;;;9.63;;
11498;SDS011;5806;48.748;9.278;2023-03-01T00:05:45;13.17;;;9.43;;
11498;SDS011;5806;48.748;9.278;2023-03-01T00:08:11;14.63;;;9.33;;
11498;SDS011;5806;48.748;9.278;2023-03-01T00:10:38;11.40;;;8.33;;
11498;SDS011;5806;48.748;9.278;2023-03-01T00:13:04;12.17;;;9.00;;
11498;SDS011;5806;48.748;9.278;2023-03-01T00:15:31;9.77;;;7.87;;
11498;SDS011;5806;48.748;9.278;2023-03-01T00:17:58;11.53;;;8.63;;
11498;SDS011;5806;48.748;9.278;2023-03-01T00:20:24;10.10;;;7.63;;
11498;SDS011;5806;48.748;9.278;2023-03-01T00:22:51;12.30;;;8.63;;
11498;SDS011;5806;48.748;9.278;2023-03-01T00:25:18;10.50;;;8.33;;
11498;SDS011;5806;48.748;9.278;2023-03-01T00:27:44;10.70;;;8.23;;
11498;SDS011;5806;48.748;9.278;2023-03-01T00:30:13;9.70;;;7.90;;
11498;SDS011;5806;48.748;9.278;2023-03-01T00:32:39;14.00;;;8.53;;
11498;SDS011;5806;48.748;9.278;2023-03-01T00:35:06;12.87;;;8.33;;
11498;SDS011;5806;48.748;9.278;2023-03-01T00:37:33;11.37;;;8.23;;
11498;SDS011;5806;48.748;9.278;2023-03-01T00:39:59;9.93;;;8.00;;
11498;SDS011;5806;48.748;9.278;2023-03-01T00:42:26;12.33;;;8.30;;
11498;SDS011;5806;48.748;9.278;2023-03-01T00:44:52;11.53;;;7.63;;
11498;SDS011;5806;48.748;9.278;2023-03-01T00:47:19;11.23;;;7.63;;
11498;SDS011;5806;48.748;9.278;2023-03-01T00:49:45;11.97;;;8.30;;
11498;SDS011;5806;48.748;9.278;2023-03-01T00:52:12;9.60;;;7.13;;
11498;SDS011;5806;48.748;9.278;2023-03-01T00:54:38;11.40;;;8.17;;
11498;SDS011;5806;48.748;9.278;2023-03-01T00:57:05;9.97;;;7.73;;
11498;SDS011;5806;48.748;9.278;2023-03-01T00:59:31;10.43;;;7.60;;
11498;SDS011;5806;48.748;9.278;2023-03-01T01:01:58;10.47;;;7.33;;
11498;SDS011;5806;48.748;9.278;2023-03-01T01:04:24;9.63;;;7.30;;
11498;SDS011;5806;48.748;9.278;2023-03-01T01:06:51;11.47;;;8.40;;
11498;SDS011;5806;48.748;9.278;2023-03-01T01:09:17;11.23;;;7.90;;
11498;SDS011;5806;48.748;9.278;2023-03-01T01:11:45;12.07;;;8.27;;
11498;SDS011;5806;48.748;9.278;2023-03-01T01:14:12;9.33;;;7.77;;
11498;SDS011;5806;48.748;9.278;2023-03-01T01:16:38;8.50;;;6.97;;
11498;SDS011;5806;48.748;9.278;2023-03-01T01:19:05;9.63;;;6.83;;
11498;SDS011;5806;48.748;9.278;2023-03-01T01:21:31;9.37;;;7.40;;
11498;SDS011;5806;48.748;9.278;2023-03-01T01:23:58;9.43;;;6.93;;
11498;SDS011;5806;48.748;9.278;2023-03-01T01:26:29;10.20;;;7.07;;
11498;SDS011;5806;48.748;9.278;2023-03-01T01:28:56;8.70;;;6.97;;
11498;SDS011;5806;48.748;9.278;2023-03-01T01:31:23;9.97;;;7.30;;
11498;SDS011;5806;48.748;9.278;2023-03-01T01:33:50;12.10;;;7.13;;
11498;SDS011;5806;48.748;9.278;2023-03-01T01:36:17;10.23;;;7.07;;
11498;SDS011;5806;48.748;9.278;2023-03-01T01:38:43;10.77;;;7.40;;
11498;SDS011;5806;48.748;9.278;2023-03-01T01:41:11;9.47;;;7.07;;
11498;SDS011;5806;48.748;9.278;2023-03-01T01:43:39;9.23;;;7.17;;
11498;SDS011;5806;48.748;9.278;2023-03-01T01:48:53;8.17;;;6.63;;
11498;SDS011;5806;48.748;9.278;2023-03-01T01:51:21;9.07;;;7.40;;
11498;SDS011;5806;48.748;9.278;2023-03-01T01:53:49;9.37;;;7.53;;
11498;SDS011;5806;48.748;9.278;2023-03-01T01:56:16;8.83;;;7.10;;
11498;SDS011;5806;48.748;9.278;2023-03-01T01:58:43;11.80;;;7.67;;
11498;SDS011;5806;48.748;9.278;2023-03-01T02:01:11;9.23;;;7.60;;
11498;SDS011;5806;48.748;9.278;2023-03-01T02:03:38;11.27;;;7.87;;
11498;SDS011;5806;48.748;9.278;2023-03-01T02:06:17;12.50;;;8.00;;
11498;SDS011;5806;48.748;9.278;2023-03-01T02:08:41;10.23;;;8.30;;
11498;SDS011;5806;48.748;9.278;2023-03-01T02:11:08;12.23;;;8.20;;
11498;SDS011;5806;48.748;9.278;2023-03-01T02:13:36;9.33;;;7.20;;
11498;SDS011;5806;48.748;9.278;2023-03-01T02:16:07;12.87;;;8.40;;
11498;SDS011;5806;48.748;9.278;2023-03-01T02:18:31;11.50;;;8.40;;
11498;SDS011;5806;48.748;9.278;2023-03-01T02:23:34;10.53;;;7.73;;
11498;SDS011;5806;48.748;9.278;2023-03-01T02:26:09;12.43;;;8.40;;
11498;SDS011;5806;48.748;9.278;2023-03-01T02:28:37;10.10;;;8.03;;
11498;SDS011;5806;48.748;9.278;2023-03-01T02:31:07;11.13;;;7.93;;
11498;SDS011;5806;48.748;9.278;2023-03-01T02:33:53;10.20;;;8.10;;
11498;SDS011;5806;48.748;9.278;2023-03-01T02:36:22;10.20;;;7.63;;
11498;SDS011;5806;48.748;9.278;2023-03-01T02:38:48;13.17;;;8.00;;
11498;SDS011;5806;48.748;9.278;2023-03-01T02:41:16;10.50;;;7.30;;
11498;SDS011;5806;48.748;9.278;2023-03-01T02:43:44;10.73;;;7.63;;
11498;SDS011;5806;48.748;9.278;2023-03-01T02:46:15;8.90;;;7.20;;
11498;SDS011;5806;48.748;9.278;2023-03-01T02:48:43;11.50;;;7.73;;
11498;SDS011;5806;48.748;9.278;2023-03-01T02:56:32;9.73;;;7.23;;
11498;SDS011;5806;48.748;9.278;2023-03-01T02:58:58;8.60;;;6.67;;
11498;SDS011;5806;48.748;9.278;2023-03-01T03:01:27;9.73;;;7.30;;
11498;SDS011;5806;48.748;9.278;2023-03-01T03:04:08;8.23;;;7.20;;
11498;SDS011;5806;48.748;9.278;2023-03-01T03:06:30;9.93;;;7.50;;
11498;SDS011;5806;48.748;9.278;2023-03-01T03:08:57;10.93;;;7.53;;
11498;SDS011;5806;48.748;9.278;2023-03-01T03:11:23;9.07;;;7.07;;
11498;SDS011;5806;48.748;9.278;2023-03-01T03:13:50;9.93;;;7.10;;
11498;SDS011;5806;48.748;9.278;2023-03-01T03:16:17;9.27;;;7.13;;
11498;SDS011;5806;48.748;9.278;2023-03-01T03:18:44;9.20;;;7.30;;
11498;SDS011;5806;48.748;9.278;2023-03-01T03:21:11;9.27;;;7.37;;
11498;SDS011;5806;48.748;9.278;2023-03-01T03:23:38;9.50;;;7.40;;
11498;SDS011;5806;48.748;9.278;2023-03-01T03:26:05;9.23;;;6.83;;
11498;SDS011;5806;48.748;9.278;2023-03-01T03:28:32;8.73;;;7.30;;
11498;SDS011;5806;48.748;9.278;2023-03-01T03:30:59;10.67;;;7.37;;
11498;SDS011;5806;48.748;9.278;2023-03-01T03:33:27;9.10;;;6.93;;
11498;SDS011;5806;48.748;9.278;2023-03-01T03:35:54;10.97;;;7.53;;
11498;SDS011;5806;48.748;9.278;2023-03-01T03:38:20;8.43;;;6.53;;
11498;SDS011;5806;48.748;9.278;2023-03-01T03:40:48;10.13;;;7.63;;
11498;SDS011;5806;48.748;9.278;2023-03-01T03:43:16;9.73;;;7.00;;
11498;SDS011;5806;48.748;9.278;2023-03-01T03:45:44;9.77;;;7.27;;
11498;SDS011;5806;48.748;9.278;2023-03-01T03:48:10;8.17;;;6.67;;
11498;SDS011;5806;48.748;9.278;2023-03-01T03:50:37;10.13;;;7.20;;
11498;SDS011;5806;48.748;9.278;2023-03-01T03:53:05;9.33;;;7.27;;
11498;SDS011;5806;48.748;9.278;2023-03-01T03:55:32;9.37;;;7.30;;
11498;SDS011;5806;48.748;9.278;2023-03-01T03:58:02;10.50;;;7.53;;
11498;SDS011;5806;48.748;9.278;2023-03-01T04:00:29;10.07;;;7.00;;
11498;SDS011;5806;48.748;9.278;2023-03-01T04:02:56;9.57;;;7.80;;
11498;SDS011;5806;48.748;9.278;2023-03-01T04:05:23;9.67;;;6.90;;
11498;SDS011;5806;48.748;9.278;2023-03-01T04:07:49;10.27;;;7.40;;
11498;SDS011;5806;48.748;9.278;2023-03-01T04:10:17;10.67;;;7.07;;
11498;SDS011;5806;48.748;9.278;2023-03-01T04:12:44;11.67;;;7.53;;
11498;SDS011;5806;48.748;9.278;2023-03-01T04:15:11;10.87;;;7.83;;
11498;SDS011;5806;48.748;9.278;2023-03-01T04:17:46;10.90;;;7.07;;
11498;SDS011;5806;48.748;9.278;2023-03-01T04:20:09;11.07;;;7.90;;
11498;SDS011;5806;48.748;9.278;2023-03-01T04:22:38;8.10;;;6.80;;
11498;SDS011;5806;48.748;9.278;2023-03-01T04:25:06;10.07;;;7.47;;
11498;SDS011;5806;48.748;9.278;2023-03-01T04:27:33;10.57;;;7.37;;
11498;SDS011;5806;48.748;9.278;2023-03-01T04:30:00;8.33;;;6.93;;
11498;SDS011;5806;48.748;9.278;2023-03-01T04:32:26;11.03;;;7.13;;
11498;SDS011;5806;48.748;9.278;2023-03-01T04:34:53;10.50;;;7.83;;
11498;SDS011;5806;48.748;9.278;2023-03-01T04:37:19;9.30;;;7.13;;
11498;SDS011;5806;48.748;9.278;2023-03-01T04:39:46;12.17;;;7.77;;
11498;SDS011;5806;48.748;9.278;2023-03-01T04:42:17;9.23;;;7.13;;
11498;SDS011;5806;48.748;9.278;2023-03-01T04:44:42;9.57;;;7.27;;
11498;SDS011;5806;48.748;9.278;2023-03-01T04:47:09;9.70;;;7.63;;
11498;SDS011;5806;48.748;9.278;2023-03-01T04:49:35;10.27;;;7.37;;
11498;SDS011;5806;48.748;9.278;2023-03-01T04:52:02;10.23;;;7.90;;
11498;SDS011;5806;48.748;9.278;2023-03-01T04:54:30;9.17;;;7.70;;
11498;SDS011;5806;48.748;9.278;2023-03-01T04:56:57;11.77;;;7.43;;
11498;SDS011;5806;48.748;9.278;2023-03-01T04:59:23;10.47;;;7.27;;
11498;SDS011;5806;48.748;9.278;2023-03-01T05:01:50;12.00;;;7.67;;
11498;SDS011;5806;48.748;9.278;2023-03-01T05:04:17;9.60;;;7.47;;
11498;SDS011;5806;48.748;9.278;2023-03-01T05:06:44;10.07;;;7.60;;
11498;SDS011;5806;48.748;9.278;2023-03-01T05:09:10;9.70;;;7.27;;
11498;SDS011;5806;48.748;9.278;2023-03-01T05:11:37;11.07;;;7.87;;
11498;SDS011;5806;48.748;9.278;2023-03-01T05:14:04;10.53;;;7.53;;
11498;SDS011;5806;48.748;9.278;2023-03-01T05:16:31;14.03;;;7.70;;
11498;SDS011;5806;48.748;9.278;2023-03-01T05:18:58;10.17;;;7.53;;
11498;SDS011;5806;48.748;9.278;2023-03-01T05:21:25;13.23;;;8.60;;
11498;SDS011;5806;48.748;9.278;2023-03-01T05:23:51;10.73;;;7.83;;
11498;SDS011;5806;48.748;9.278;2023-03-01T05:26:20;10.40;;;7.60;;
11498;SDS011;5806;48.748;9.278;2023-03-01T05:28:47;9.77;;;7.67;;
11498;SDS011;5806;48.748;9.278;2023-03-01T05:31:13;12.33;;;7.87;;
11498;SDS011;5806;48.748;9.278;2023-03-01T05:33:40;12.40;;;7.97;;
11498;SDS011;5806;48.748;9.278;2023-03-01T05:36:07;11.27;;;7.23;;
11498;SDS011;5806;48.748;9.278;2023-03-01T05:38:35;11.17;;;8.37;;
11498;SDS011;5806;48.748;9.278;2023-03-01T05:41:01;11.37;;;8.07;;
11498;SDS011;5806;48.748;9.278;2023-03-01T05:43:29;11.30;;;8.03;;
11498;SDS011;5806;48.748;9.278;2023-03-01T05:45:57;10.13;;;7.60;;
11498;SDS011;5806;48.748;9.278;2023-03-01T05:48:23;10.77;;;8.20;;
11498;SDS011;5806;48.748;9.278;2023-03-01T05:50:50;10.70;;;7.57;;
11498;SDS011;5806;48.748;9.278;2023-03-01T05:53:17;10.73;;;8.13;;
11498;SDS011;5806;48.748;9.278;2023-03-01T05:55:46;12.77;;;8.57;;
11498;SDS011;5806;48.748;9.278;2023-03-01T05:58:14;12.90;;;8.90;;
11498;SDS011;5806;48.748;9.278;2023-03-01T06:00:42;10.50;;;7.47;;
11498;SDS011;5806;48.748;9.278;2023-03-01T06:03:10;11.50;;;7.60;;
11498;SDS011;5806;48.748;9.278;2023-03-01T06:05:37;11.73;;;8.70;;
11498;SDS011;5806;48.748;9.278;2023-03-01T06:08:04;9.37;;;7.47;;
11498;SDS011;5806;48.748;9.278;2023-03-01T06:10:31;12.23;;;8.90;;
11498;SDS011;5806;48.748;9.278;2023-03-01T06:12:58;12.87;;;8.33;;
11498;SDS011;5806;48.748;9.278;2023-03-01T06:15:24;10.30;;;8.40;;
11498;SDS011;5806;48.748;9.278;2023-03-01T06:17:51;11.37;;;8.20;;
11498;SDS011;5806;48.748;9.278;2023-03-01T06:20:21;13.40;;;8.83;;
11498;SDS011;5806;48.748;9.278;2023-03-01T06:22:48;10.60;;;8.63;;
11498;SDS011;5806;48.748;9.278;2023-03-01T06:25:16;12.70;;;9.17;;
11498;SDS011;5806;48.748;9.278;2023-03-01T06:27:43;11.93;;;8.20;;
11498;SDS011;5806;48.748;9.278;2023-03-01T06:30:11;13.57;;;8.63;;
11498;SDS011;5806;48.748;9.278;2023-03-01T06:32:38;13.87;;;8.97;;
11498;SDS011;5806;48.748;9.278;2023-03-01T06:35:06;11.63;;;8.60;;
11498;SDS011;5806;48.748;9.278;2023-03-01T06:37:32;13.10;;;8.20;;
11498;SDS011;5806;48.748;9.278;2023-03-01T06:40:01;10.90;;;8.07;;
11498;SDS011;5806;48.748;9.278;2023-03-01T06:42:29;12.50;;;8.70;;
11498;SDS011;5806;48.748;9.278;2023-03-01T06:44:56;15.73;;;9.03;;
11498;SDS011;5806;48.748;9.278;2023-03-01T06:47:22;13.53;;;8.83;;
11498;SDS011;5806;48.748;9.278;2023-03-01T06:49:49;14.63;;;8.90;;
11498;SDS011;5806;48.748;9.278;2023-03-01T06:52:15;12.93;;;9.57;;
11498;SDS011;5806;48.748;9.278;2023-03-01T06:54:42;10.43;;;8.50;;
11498;SDS011;5806;48.748;9.278;2023-03-01T06:57:08;13.37;;;9.10;;
11498;SDS011;5806;48.748;9.278;2023-03-01T06:59:35;14.53;;;8.87;;
11498;SDS011;5806;48.748;9.278;2023-03-01T07:02:01;10.87;;;9.17;;
11498;SDS011;5806;48.748;9.278;2023-03-01T07:04:27;11.00;;;8.87;;
11498;SDS011;5806;48.748;9.278;2023-03-01T07:06:55;14.80;;;10.70;;
11498;SDS011;5806;48.748;9.278;2023-03-01T07:09:22;11.87;;;9.37;;
11498;SDS011;5806;48.748;9.278;2023-03-01T07:11:49;14.97;;;9.93;;
11498;SDS011;5806;48.748;9.278;2023-03-01T07:14:15;13.67;;;10.00;;
11498;SDS011;5806;48.748;9.278;2023-03-01T07:16:42;14.40;;;10.70;;
11498;SDS011;5806;48.748;9.278;2023-03-01T07:19:08;14.27;;;11.10;;
11498;SDS011;5806;48.748;9.278;2023-03-01T07:21:35;15.97;;;10.77;;
11498;SDS011;5806;48.748;9.278;2023-03-01T07:24:05;17.83;;;11.83;;
11498;SDS011;5806;48.748;9.278;2023-03-01T07:26:32;18.20;;;11.43;;
11498;SDS011;5806;48.748;9.278;2023-03-01T07:28:59;17.47;;;10.77;;
11498;SDS011;5806;48.748;9.278;2023-03-01T07:31:26;16.27;;;11.00;;
11498;SDS011;5806;48.748;9.278;2023-03-01T07:33:56;16.50;;;11.50;;
11498;SDS011;5806;48.748;9.278;2023-03-01T07:36:22;18.40;;;11.47;;
11498;SDS011;5806;48.748;9.278;2023-03-01T07:38:49;13.70;;;10.90;;
11498;SDS011;5806;48.748;9.278;2023-03-01T07:41:16;16.53;;;11.83;;
11498;SDS011;5806;48.748;9.278;2023-03-01T07:43:43;15.20;;;11.23;;
11498;SDS011;5806;48.748;9.278;2023-03-01T07:46:09;20.63;;;11.90;;
11498;SDS011;5806;48.748;9.278;2023-03-01T07:48:36;14.70;;;11.40;;
11498;SDS011;5806;48.748;9.278;2023-03-01T07:51:04;16.07;;;11.70;;
11498;SDS011;5806;48.748;9.278;2023-03-01T07:53:31;15.20;;;11.37;;
11498;SDS011;5806;48.748;9.278;2023-03-01T07:56:09;14.20;;;11.30;;
11498;SDS011;5806;48.748;9.278;2023-03-01T07:58:37;16.77;;;11.37;;
11498;SDS011;5806;48.748;9.278;2023-03-01T08:01:04;17.40;;;11.63;;
11498;SDS011;5806;48.748;9.278;2023-03-01T08:03:31;16.47;;;11.53;;
11498;SDS011;5806;48.748;9.278;2023-03-01T08:06:01;17.20;;;11.23;;
11498;SDS011;5806;48.748;9.278;2023-03-01T08:08:28;15.23;;;11.70;;
11498;SDS011;5806;48.748;9.278;2023-03-01T08:10:58;14.13;;;10.83;;
11498;SDS011;5806;48.748;9.278;2023-03-01T08:13:25;16.20;;;10.67;;
11498;SDS011;5806;48.748;9.278;2023-03-01T08:15:52;17.23;;;11.57;;
11498;SDS011;5806;48.748;9.278;2023-03-01T08:18:19;14.40;;;10.43;;
11498;SDS011;5806;48.748;9.278;2023-03-01T08:20:46;16.23;;;11.60;;
11498;SDS011;5806;48.748;9.278;2023-03-01T08:23:12;17.77;;;11.30;;
11498;SDS011;5806;48.748;9.278;2023-03-01T08:25:39;14.50;;;11.37;;
11498;SDS011;5806;48.748;9.278;2023-03-01T08:28:05;18.10;;;11.43;;
11498;SDS011;5806;48.748;9.278;2023-03-01T08:30:32;14.50;;;10.73;;
11498;SDS011;5806;48.748;9.278;2023-03-01T08:32:59;16.73;;;11.10;;
11498;SDS011;5806;48.748;9.278;2023-03-01T08:35:25;19.43;;;11.47;;
11498;SDS011;5806;48.748;9.278;2023-03-01T08:37:52;15.53;;;10.90;;
11498;SDS011;5806;48.748;9.278;2023-03-01T08:40:18;14.93;;;10.63;;
11498;SDS011;5806;48.748;9.278;2023-03-01T08:42:45;15.43;;;10.63;;
11498;SDS011;5806;48.748;9.278;2023-03-01T08:45:12;14.50;;;10.80;;
11498;SDS011;5806;48.748;9.278;2023-03-01T08:47:40;14.90;;;11.07;;
11498;SDS011;5806;48.748;9.278;2023-03-01T08:50:09;16.10;;;10.83;;
11498;SDS011;5806;48.748;9.278;2023-03-01T08:52:48;14.77;;;11.20;;
11498;SDS011;5806;48.748;9.278;2023-03-01T08:55:14;13.80;;;9.57;;
11498;SDS011;5806;48.748;9.278;2023-03-01T08:57:43;13.93;;;9.57;;
11498;SDS011;5806;48.748;9.278;2023-03-01T09:00:09;14.80;;;10.47;;
11498;SDS011;5806;48.748;9.278;2023-03-01T09:02:40;16.67;;;10.20;;
11498;SDS011;5806;48.748;9.278;2023-03-01T09:05:07;13.87;;;11.07;;
11498;SDS011;5806;48.748;9.278;2023-03-01T09:07:33;13.53;;;9.60;;
11498;SDS011;5806;48.748;9.278;2023-03-01T09:10:00;15.17;;;10.00;;
11498;SDS011;5806;48.748;9.278;2023-03-01T09:12:26;13.97;;;10.03;;
11498;SDS011;5806;48.748;9.278;2023-03-01T09:14:53;15.20;;;10.47;;
11498;SDS011;5806;48.748;9.278;2023-03-01T09:17:19;13.03;;;9.43;;
11498;SDS011;5806;48.748;9.278;2023-03-01T09:19:46;13.47;;;9.93;;
11498;SDS011;5806;48.748;9.278;2023-03-01T09:22:14;12.80;;;9.70;;
11498;SDS011;5806;48.748;9.278;2023-03-01T09:24:41;10.93;;;8.63;;
11498;SDS011;5806;48.748;9.278;2023-03-01T09:27:07;12.63;;;8.97;;
11498;SDS011;5806;48.748;9.278;2023-03-01T09:29:35;14.50;;;9.07;;
11498;SDS011;5806;48.748;9.278;2023-03-01T09:32:02;14.40;;;9.03;;
11498;SDS011;5806;48.748;9.278;2023-03-01T09:34:29;12.47;;;9.60;;
11498;SDS011;5806;48.748;9.278;2023-03-01T09:36:56;12.27;;;9.57;;
11498;SDS011;5806;48.748;9.278;2023-03-01T09:39:24;11.67;;;8.80;;
11498;SDS011;5806;48.748;9.278;2023-03-01T09:42:00;13.27;;;9.73;;
11498;SDS011;5806;48.748;9.278;2023-03-01T09:44:29;18.23;;;10.40;;
11498;SDS011;5806;48.748;9.278;2023-03-01T09:46:57;14.23;;;8.97;;
11498;SDS011;5806;48.748;9.278;2023-03-01T09:49:34;13.70;;;9.73;;
11498;SDS011;5806;48.748;9.278;2023-03-01T09:54:40;16.23;;;9.57;;
11498;SDS011;5806;48.748;9.278;2023-03-01T10:02:27;11.23;;;8.90;;
11498;SDS011;5806;48.748;9.278;2023-03-01T10:10:30;13.13;;;9.90;;
11498;SDS011;5806;48.748;9.278;2023-03-01T10:12:56;13.97;;;9.73;;
11498;SDS011;5806;48.748;9.278;2023-03-01T10:15:39;12.27;;;9.53;;
11498;SDS011;5806;48.748;9.278;2023-03-01T10:18:10;14.03;;;9.93;;
11498;SDS011;5806;48.748;9.278;2023-03-01T10:20:54;14.17;;;10.10;;
11498;SDS011;5806;48.748;9.278;2023-03-01T10:23:22;14.27;;;9.93;;
11498;SDS011;5806;48.748;9.278;2023-03-01T10:26:06;12.00;;;9.27;;
11498;SDS011;5806;48.748;9.278;2023-03-01T10:31:04;13.53;;;9.73;;
11498;SDS011;5806;48.748;9.278;2023-03-01T10:33:32;12.03;;;9.73;;
11498;SDS011;5806;48.748;9.278;2023-03-01T10:36:00;13.80;;;9.43;;
11498;SDS011;5806;48.748;9.278;2023-03-01T10:38:27;11.17;;;8.83;;
11498;SDS011;5806;48.748;9.278;2023-03-01T10:40:59;14.27;;;9.30;;
11498;SDS011;5806;48.748;9.278;2023-03-01T10:46:33;13.27;;;9.20;;
11498;SDS011;5806;48.748;9.278;2023-03-01T10:48:44;13.07;;;9.20;;
11498;SDS011;5806;48.748;9.278;2023-03-01T10:51:12;14.57;;;10.33;;
11498;SDS011;5806;48.748;9.278;2023-03-01T10:53:48;15.53;;;9.67;;
11498;SDS011;5806;48.748;9.278;2023-03-01T10:56:12;12.53;;;9.07;;
11498;SDS011;5806;48.748;9.278;2023-03-01T10:58:56;12.27;;;9.23;;
11498;SDS011;5806;48.748;9.278;2023-03-01T11:03:44;12.73;;;9.37;;
11498;SDS011;5806;48.748;9.278;2023-03-01T11:08:46;13.27;;;9.53;;
11498;SDS011;5806;48.748;9.278;2023-03-01T11:13:53;13.80;;;8.93;;
11498;SDS011;5806;48.748;9.278;2023-03-01T11:16:27;13.03;;;9.23;;
11498;SDS011;5806;48.748;9.278;2023-03-01T11:19:29;13.67;;;9.23;;
11498;SDS011;5806;48.748;9.278;2023-03-01T11:24:53;13.00;;;8.70;;
11498;SDS011;5806;48.748;9.278;2023-03-01T11:27:32;11.57;;;8.60;;
11498;SDS011;5806;48.748;9.278;2023-03-01T11:30:07;15.53;;;9.50;;
11498;SDS011;5806;48.748;9.278;2023-03-01T11:32:36;12.30;;;9.00;;
11498;SDS011;5806;48.748;9.278;2023-03-01T11:37:41;11.87;;;8.93;;
11498;SDS011;5806;48.748;9.278;2023-03-01T11:40:17;11.87;;;8.77;;
11498;SDS011;5806;48.748;9.278;2023-03-01T11:45:15;13.57;;;8.73;;
11498;SDS011;5806;48.748;9.278;2023-03-01T11:50:18;13.03;;;8.63;;
11498;SDS011;5806;48.748;9.278;2023-03-01T11:55:36;14.03;;;8.33;;
11498;SDS011;5806;48.748;9.278;2023-03-01T11:58:38;11.40;;;7.67;;
11498;SDS011;5806;48.748;9.278;2023-03-01T12:00:37;11.97;;;7.30;;
11498;SDS011;5806;48.748;9.278;2023-03-01T12:16:16;10.90;;;7.00;;
11498;SDS011;5806;48.748;9.278;2023-03-01T12:23:55;8.03;;;6.40;;
11498;SDS011;5806;48.748;9.278;2023-03-01T12:26:30;9.57;;;6.73;;
11498;SDS011;5806;48.748;9.278;2023-03-01T12:31:49;10.93;;;6.93;;
11498;SDS011;5806;48.748;9.278;2023-03-01T12:50:21;9.03;;;6.83;;
11498;SDS011;5806;48.748;9.278;2023-03-01T12:52:40;10.50;;;6.70;;
11498;SDS011;5806;48.748;9.278;2023-03-01T12:55:31;7.20;;;6.20;;
11498;SDS011;5806;48.748;9.278;2023-03-01T12:57:40;7.33;;;5.97;;
11498;SDS011;5806;48.748;9.278;2023-03-01T13:05:56;11.20;;;7.37;;
11498;SDS011;5806;48.748;9.278;2023-03-01T13:10:48;7.60;;;6.70;;
11498;SDS011;5806;48.748;9.278;2023-03-01T13:13:19;10.60;;;7.37;;
11498;SDS011;5806;48.748;9.278;2023-03-01T13:15:49;8.57;;;6.60;;
11498;SDS011;5806;48.748;9.278;2023-03-01T13:20:58;9.03;;;7.47;;
11498;SDS011;5806;48.748;9.278;2023-03-01T13:23:24;9.00;;;6.83;;
11498;SDS011;5806;48.748;9.278;2023-03-01T13:31:03;9.57;;;7.63;;
11498;SDS011;5806;48.748;9.278;2023-03-01T13:36:01;10.50;;;7.70;;
11498;SDS011;5806;48.748;9.278;2023-03-01T13:38:37;7.90;;;6.53;;
11498;SDS011;5806;48.748;9.278;2023-03-01T13:41:06;11.10;;;7.60;;
11498;SDS011;5806;48.748;9.278;2023-03-01T13:43:34;8.77;;;7.30;;
11498;SDS011;5806;48.748;9.278;2023-03-01T13:46:08;10.13;;;7.30;;
11498;SDS011;5806;48.748;9.278;2023-03-01T13:48:39;11.27;;;7.73;;
11498;SDS011;5806;48.748;9.278;2023-03-01T13:51:09;9.47;;;7.47;;
11498;SDS011;5806;48.748;9.278;2023-03-01T13:53:39;10.50;;;7.13;;
11498;SDS011;5806;48.748;9.278;2023-03-01T13:56:09;9.33;;;7.27;;
11498;SDS011;5806;48.748;9.278;2023-03-01T13:58:49;7.43;;;6.53;;
11498;SDS011;5806;48.748;9.278;2023-03-01T14:01:36;9.87;;;7.20;;
11498;SDS011;5806;48.748;9.278;2023-03-01T14:03:59;11.43;;;7.63;;
11498;SDS011;5806;48.748;9.278;2023-03-01T14:06:34;8.73;;;6.77;;
11498;SDS011;5806;48.748;9.278;2023-03-01T14:09:05;7.77;;;6.17;;
11498;SDS011;5806;48.748;9.278;2023-03-01T14:19:16;10.23;;;6.90;;
11498;SDS011;5806;48.748;9.278;2023-03-01T14:21:38;7.03;;;5.63;;
11498;SDS011;5806;48.748;9.278;2023-03-01T14:24:05;9.53;;;6.60;;
11498;SDS011;5806;48.748;9.278;2023-03-01T14:26:32;9.63;;;6.57;;
11498;SDS011;5806;48.748;9.278;2023-03-01T14:28:59;8.00;;;6.40;;
11498;SDS011;5806;48.748;9.278;2023-03-01T14:31:31;7.67;;;5.73;;
11498;SDS011;5806;48.748;9.278;2023-03-01T14:33:55;9.47;;;6.47;;
11498;SDS011;5806;48.748;9.278;2023-03-01T14:36:26;10.37;;;7.17;;
11498;SDS011;5806;48.748;9.278;2023-03-01T14:38:49;10.53;;;7.37;;
11498;SDS011;5806;48.748;9.278;2023-03-01T14:48:50;12.13;;;7.77;;
11498;SDS011;5806;48.748;9.278;2023-03-01T14:51:17;11.77;;;7.10;;
11498;SDS011;5806;48.748;9.278;2023-03-01T14:53:47;11.00;;;7.80;;
11498;SDS011;5806;48.748;9.278;2023-03-01T14:56:16;15.10;;;8.07;;
11498;SDS011;5806;48.748;9.278;2023-03-01T14:58:46;12.00;;;8.70;;
11498;SDS011;5806;48.748;9.278;2023-03-01T15:01:15;10.37;;;7.40;;
11498;SDS011;5806;48.748;9.278;2023-03-01T15:03:47;10.93;;;7.53;;
11498;SDS011;5806;48.748;9.278;2023-03-01T15:06:15;14.03;;;8.50;;
11498;SDS011;5806;48.748;9.278;2023-03-01T15:08:45;11.23;;;8.20;;
11498;SDS011;5806;48.748;9.278;2023-03-01T15:11:29;15.50;;;8.93;;
11498;SDS011;5806;48.748;9.278;2023-03-01T15:13:56;11.83;;;8.27;;
11498;SDS011;5806;48.748;9.278;2023-03-01T15:16:27;9.53;;;7.37;;
11498;SDS011;5806;48.748;9.278;2023-03-01T15:19:02;9.67;;;6.67;;
11498;SDS011;5806;48.748;9.278;2023-03-01T15:21:31;11.23;;;7.30;;
11498;SDS011;5806;48.748;9.278;2023-03-01T15:26:42;9.63;;;6.80;;
11498;SDS011;5806;48.748;9.278;2023-03-01T15:29:18;10.70;;;7.30;;
11498;SDS011;5806;48.748;9.278;2023-03-01T15:34:31;9.43;;;7.00;;
11498;SDS011;5806;48.748;9.278;2023-03-01T15:36:59;10.47;;;7.27;;
11498;SDS011;5806;48.748;9.278;2023-03-01T15:40:17;8.97;;;7.30;;
11498;SDS011;5806;48.748;9.278;2023-03-01T15:41:54;9.93;;;7.27;;
11498;SDS011;5806;48.748;9.278;2023-03-01T15:44:27;10.63;;;6.60;;
11498;SDS011;5806;48.748;9.278;2023-03-01T15:46:54;9.17;;;6.80;;
11498;SDS011;5806;48.748;9.278;2023-03-01T15:49:40;10.03;;;7.10;;
11498;SDS011;5806;48.748;9.278;2023-03-01T15:52:12;8.87;;;6.43;;
11498;SDS011;5806;48.748;9.278;2023-03-01T15:54:38;9.20;;;6.40;;
11498;SDS011;5806;48.748;9.278;2023-03-01T15:57:15;9.33;;;6.90;;
11498;SDS011;5806;48.748;9.278;2023-03-01T15:59:34;10.20;;;6.57;;
11498;SDS011;5806;48.748;9.278;2023-03-01T16:02:00;8.87;;;5.90;;
11498;SDS011;5806;48.748;9.278;2023-03-01T16:07:29;7.93;;;6.63;;
11498;SDS011;5806;48.748;9.278;2023-03-01T16:09:57;9.67;;;6.00;;
11498;SDS011;5806;48.748;9.278;2023-03-01T16:12:24;9.13;;;6.20;;
11498;SDS011;5806;48.748;9.278;2023-03-01T16:14:51;11.97;;;6.00;;
11498;SDS011;5806;48.748;9.278;2023-03-01T16:17:18;7.67;;;5.90;;
11498;SDS011;5806;48.748;9.278;2023-03-01T16:19:47;7.93;;;6.07;;
11498;SDS011;5806;48.748;9.278;2023-03-01T16:22:13;11.23;;;6.90;;
11498;SDS011;5806;48.748;9.278;2023-03-01T16:24:39;11.27;;;6.83;;
11498;SDS011;5806;48.748;9.278;2023-03-01T16:27:07;9.50;;;5.83;;
11498;SDS011;5806;48.748;9.278;2023-03-01T16:29:34;8.73;;;5.77;;
11498;SDS011;5806;48.748;9.278;2023-03-01T16:32:02;8.87;;;6.00;;
11498;SDS011;5806;48.748;9.278;2023-03-01T16:34:29;8.30;;;6.30;;
11498;SDS011;5806;48.748;9.278;2023-03-01T16:36:55;8.13;;;5.90;;
11498;SDS011;5806;48.748;9.278;2023-03-01T16:39:22;14.93;;;6.47;;
11498;SDS011;5806;48.748;9.278;2023-03-01T16:41:48;7.43;;;5.83;;
11498;SDS011;5806;48.748;9.278;2023-03-01T16:44:15;8.23;;;5.53;;
11498;SDS011;5806;48.748;9.278;2023-03-01T16:46:41;9.60;;;6.43;;
11498;SDS011;5806;48.748;9.278;2023-03-01T16:49:08;9.63;;;6.30;;
11498;SDS011;5806;48.748;9.278;2023-03-01T16:51:35;8.33;;;6.50;;
11498;SDS011;5806;48.748;9.278;2023-03-01T16:54:02;8.27;;;5.77;;
11498;SDS011;5806;48.748;9.278;2023-03-01T16:56:30;6.87;;;5.40;;
11498;SDS011;5806;48.748;9.278;2023-03-01T16:58:58;8.73;;;6.13;;
11498;SDS011;5806;48.748;9.278;2023-03-01T17:01:24;9.83;;;6.17;;
11498;SDS011;5806;48.748;9.278;2023-03-01T17:03:51;10.33;;;6.93;;
11498;SDS011;5806;48.748;9.278;2023-03-01T17:06:19;9.00;;;6.77;;